EZS59GQ LFKJ-LSGG
Flight info
| Callsign | EZS59GQ |
|---|---|
| Flight time | N/A |
| Altitude | 34000 |
| Route | LONSU M622 PIGOS DCT BARSO DCT IRMAR/N0396F280 DCT KINES |
| Aircraft | A320/M-SDE3FGHIRWY/LB1 |
Departure
| Time | 2026-04-08 15:15 |
|---|---|
| Airport | Ajaccio Napoléon Bonaparte airport (LFKJ) |
Arrival
| Time | N/A |
|---|---|
| Airport | Geneva International Airport (LSGG) |
| Time | Latitude | Longitude | Altitude | Speed | Heading |
|---|---|---|---|---|---|
| 2026-04-08 14:50 | 41.91844 | 8.79508 | 29 ft | 0 kts | 340° |
| 2026-04-08 15:04 | 41.91853 | 8.79510 | 29 ft | 2 kts | 13° |
| 2026-04-08 15:05 | 41.91854 | 8.79515 | 31 ft | 1 kts | 53° |
| 2026-04-08 15:05 | 41.91851 | 8.79570 | 27 ft | 10 kts | 67° |
| 2026-04-08 15:05 | 41.91917 | 8.79620 | 31 ft | 11 kts | 25° |
| 2026-04-08 15:05 | 41.91981 | 8.79659 | 28 ft | 10 kts | 25° |
| 2026-04-08 15:06 | 41.92038 | 8.79695 | 30 ft | 8 kts | 25° |
| 2026-04-08 15:06 | 41.92136 | 8.79756 | 30 ft | 21 kts | 25° |
| 2026-04-08 15:06 | 41.92264 | 8.79836 | 27 ft | 19 kts | 25° |
| 2026-04-08 15:06 | 41.92382 | 8.79909 | 28 ft | 18 kts | 25° |
| 2026-04-08 15:07 | 41.92490 | 8.79975 | 29 ft | 16 kts | 24° |
| 2026-04-08 15:07 | 41.92590 | 8.80035 | 26 ft | 15 kts | 27° |
| 2026-04-08 15:07 | 41.92682 | 8.80096 | 26 ft | 14 kts | 24° |
| 2026-04-08 15:07 | 41.92764 | 8.80153 | 26 ft | 12 kts | 34° |
| 2026-04-08 15:08 | 41.92825 | 8.80218 | 27 ft | 11 kts | 41° |
| 2026-04-08 15:08 | 41.92883 | 8.80298 | 28 ft | 12 kts | 46° |
| 2026-04-08 15:08 | 41.92930 | 8.80366 | 30 ft | 8 kts | 46° |
| 2026-04-08 15:08 | 41.92959 | 8.80414 | 31 ft | 6 kts | 61° |
| 2026-04-08 15:09 | 41.92966 | 8.80459 | 31 ft | 0 kts | 101° |
| 2026-04-08 15:13 | 41.92966 | 8.80461 | 31 ft | 2 kts | 102° |
| 2026-04-08 15:13 | 41.92954 | 8.80524 | 32 ft | 8 kts | 105° |
| 2026-04-08 15:13 | 41.92923 | 8.80578 | 31 ft | 7 kts | 177° |
| 2026-04-08 15:13 | 41.92906 | 8.80568 | 31 ft | 0 kts | 204° |
| 2026-04-08 15:14 | 41.92805 | 8.80504 | 29 ft | 51 kts | 205° |
| 2026-04-08 15:14 | 41.92321 | 8.80201 | 23 ft | 112 kts | 205° |
| 2026-04-08 15:15 | 41.91473 | 8.79668 | 116 ft | 153 kts | 206° |
| 2026-04-08 15:15 | 41.90508 | 8.79005 | 713 ft | 160 kts | 213° |
| 2026-04-08 15:15 | 41.89720 | 8.77905 | 1218 ft | 173 kts | 243° |
| 2026-04-08 15:15 | 41.89310 | 8.76295 | 1598 ft | 194 kts | 252° |
| 2026-04-08 15:16 | 41.88760 | 8.74516 | 1985 ft | 218 kts | 240° |
| 2026-04-08 15:16 | 41.87956 | 8.72667 | 2487 ft | 242 kts | 238° |
| 2026-04-08 15:16 | 41.87027 | 8.70677 | 3208 ft | 256 kts | 238° |
| 2026-04-08 15:16 | 41.86070 | 8.68633 | 4137 ft | 261 kts | 239° |
| 2026-04-08 15:17 | 41.85106 | 8.66535 | 5069 ft | 266 kts | 239° |
| 2026-04-08 15:17 | 41.84199 | 8.64344 | 5958 ft | 271 kts | 250° |
| 2026-04-08 15:17 | 41.83916 | 8.61850 | 6767 ft | 276 kts | 275° |
| 2026-04-08 15:17 | 41.84509 | 8.59425 | 7559 ft | 277 kts | 303° |
| 2026-04-08 15:18 | 41.87608 | 8.56427 | 9348 ft | 282 kts | 336° |
| 2026-04-08 15:18 | 41.89412 | 8.55366 | 10221 ft | 285 kts | 336° |
| 2026-04-08 15:18 | 41.91241 | 8.54303 | 11018 ft | 288 kts | 336° |
| 2026-04-08 15:19 | 41.93135 | 8.53201 | 11426 ft | 308 kts | 336° |
| 2026-04-08 15:19 | 41.95163 | 8.52013 | 11767 ft | 327 kts | 336° |
| 2026-04-08 15:19 | 41.97277 | 8.50764 | 12429 ft | 334 kts | 336° |
| 2026-04-08 15:19 | 41.99387 | 8.49509 | 13168 ft | 338 kts | 336° |
| 2026-04-08 15:20 | 42.01556 | 8.48220 | 13904 ft | 342 kts | 336° |
| 2026-04-08 15:20 | 42.03754 | 8.46913 | 14564 ft | 346 kts | 336° |
| 2026-04-08 15:20 | 42.05973 | 8.45592 | 15220 ft | 349 kts | 336° |
| 2026-04-08 15:20 | 42.08210 | 8.44262 | 15875 ft | 353 kts | 336° |
| 2026-04-08 15:21 | 42.10476 | 8.42912 | 16531 ft | 356 kts | 336° |
| 2026-04-08 15:21 | 42.12726 | 8.41571 | 17191 ft | 359 kts | 337° |
| 2026-04-08 15:21 | 42.15023 | 8.40202 | 17852 ft | 362 kts | 337° |
| 2026-04-08 15:21 | 42.17343 | 8.38819 | 18495 ft | 366 kts | 337° |
| 2026-04-08 15:22 | 42.19682 | 8.37423 | 19035 ft | 369 kts | 337° |
| 2026-04-08 15:22 | 42.22039 | 8.36015 | 19591 ft | 372 kts | 337° |
| 2026-04-08 15:22 | 42.24416 | 8.34594 | 20136 ft | 375 kts | 337° |
| 2026-04-08 15:22 | 42.26823 | 8.33153 | 20660 ft | 379 kts | 337° |
| 2026-04-08 15:23 | 42.29241 | 8.31698 | 21179 ft | 382 kts | 337° |
| 2026-04-08 15:23 | 42.31676 | 8.30233 | 21684 ft | 385 kts | 338° |
| 2026-04-08 15:23 | 42.34138 | 8.28754 | 22198 ft | 388 kts | 338° |
| 2026-04-08 15:23 | 42.36621 | 8.27264 | 22703 ft | 392 kts | 338° |
| 2026-04-08 15:24 | 42.39121 | 8.25763 | 23204 ft | 395 kts | 338° |
| 2026-04-08 15:24 | 42.41610 | 8.24266 | 23675 ft | 398 kts | 338° |
| 2026-04-08 15:24 | 42.44159 | 8.22732 | 24085 ft | 401 kts | 338° |
| 2026-04-08 15:24 | 42.46717 | 8.21190 | 24488 ft | 404 kts | 338° |
| 2026-04-08 15:25 | 42.49292 | 8.19635 | 24890 ft | 406 kts | 338° |
| 2026-04-08 15:25 | 42.51883 | 8.18068 | 25285 ft | 409 kts | 337° |
| 2026-04-08 15:25 | 42.54493 | 8.16489 | 25679 ft | 411 kts | 337° |
| 2026-04-08 15:25 | 42.57116 | 8.14902 | 26065 ft | 414 kts | 337° |
| 2026-04-08 15:26 | 42.59753 | 8.13303 | 26446 ft | 417 kts | 337° |
| 2026-04-08 15:26 | 42.62409 | 8.11691 | 26824 ft | 419 kts | 337° |
| 2026-04-08 15:26 | 42.65085 | 8.10062 | 27194 ft | 422 kts | 337° |
| 2026-04-08 15:26 | 42.67771 | 8.08428 | 27563 ft | 424 kts | 337° |
| 2026-04-08 15:27 | 42.70477 | 8.06782 | 27930 ft | 427 kts | 337° |
| 2026-04-08 15:27 | 42.73196 | 8.05128 | 28291 ft | 429 kts | 337° |
| 2026-04-08 15:27 | 42.75923 | 8.03465 | 28663 ft | 431 kts | 336° |
| 2026-04-08 15:27 | 42.78660 | 8.01752 | 29040 ft | 433 kts | 335° |
| 2026-04-08 15:28 | 42.81350 | 7.99890 | 29410 ft | 435 kts | 333° |
| 2026-04-08 15:28 | 42.83985 | 7.97911 | 29752 ft | 438 kts | 331° |
| 2026-04-08 15:28 | 42.86632 | 7.95827 | 30072 ft | 440 kts | 330° |
| 2026-04-08 15:28 | 42.89286 | 7.93715 | 30367 ft | 443 kts | 330° |
| 2026-04-08 15:29 | 42.91957 | 7.91606 | 30631 ft | 445 kts | 331° |
| 2026-04-08 15:29 | 42.94650 | 7.89511 | 30906 ft | 446 kts | 331° |
| 2026-04-08 15:29 | 42.97367 | 7.87426 | 31185 ft | 448 kts | 331° |
| 2026-04-08 15:29 | 43.00100 | 7.85348 | 31475 ft | 449 kts | 332° |
| 2026-04-08 15:30 | 43.02838 | 7.83272 | 31824 ft | 448 kts | 332° |
| 2026-04-08 15:30 | 43.05523 | 7.81234 | 32213 ft | 447 kts | 331° |
| 2026-04-08 15:30 | 43.08235 | 7.79166 | 32598 ft | 446 kts | 331° |
| 2026-04-08 15:30 | 43.10939 | 7.77094 | 32976 ft | 444 kts | 331° |
| 2026-04-08 15:31 | 43.13632 | 7.75016 | 33349 ft | 444 kts | 331° |
| 2026-04-08 15:31 | 43.16322 | 7.72930 | 33722 ft | 442 kts | 331° |
| 2026-04-08 15:31 | 43.19001 | 7.70848 | 34092 ft | 442 kts | 330° |
| 2026-04-08 15:31 | 43.21667 | 7.68777 | 34178 ft | 436 kts | 330° |
| 2026-04-08 15:32 | 43.26871 | 7.64729 | 34187 ft | 426 kts | 330° |
| 2026-04-08 15:32 | 43.31997 | 7.60745 | 34187 ft | 425 kts | 330° |
| 2026-04-08 15:33 | 43.37163 | 7.56725 | 34187 ft | 426 kts | 330° |
| 2026-04-08 15:33 | 43.42321 | 7.52701 | 34187 ft | 426 kts | 330° |
| 2026-04-08 15:34 | 43.47452 | 7.48696 | 34191 ft | 425 kts | 330° |
| 2026-04-08 15:34 | 43.52595 | 7.44672 | 34189 ft | 425 kts | 330° |
| 2026-04-08 15:35 | 43.57744 | 7.40627 | 34188 ft | 425 kts | 330° |
| 2026-04-08 15:35 | 43.62879 | 7.36567 | 34196 ft | 424 kts | 329° |
| 2026-04-08 15:36 | 43.67857 | 7.32187 | 34200 ft | 423 kts | 326° |
| 2026-04-08 15:36 | 43.72695 | 7.27636 | 34197 ft | 423 kts | 325° |
| 2026-04-08 15:37 | 43.77572 | 7.23060 | 34197 ft | 422 kts | 326° |
| 2026-04-08 15:37 | 43.82470 | 7.18543 | 34198 ft | 422 kts | 326° |
| 2026-04-08 15:38 | 43.87353 | 7.14085 | 34198 ft | 421 kts | 326° |
| 2026-04-08 15:38 | 43.91420 | 7.10359 | 34193 ft | 421 kts | 326° |
| 2026-04-08 15:39 | 43.96311 | 7.05835 | 34190 ft | 421 kts | 326° |
| 2026-04-08 15:39 | 44.01153 | 7.01332 | 34206 ft | 421 kts | 326° |
| 2026-04-08 15:40 | 44.06019 | 6.96815 | 34198 ft | 420 kts | 326° |
| 2026-04-08 15:40 | 44.10874 | 6.92294 | 34197 ft | 419 kts | 326° |
| 2026-04-08 15:41 | 44.16177 | 6.88992 | 34194 ft | 420 kts | 345° |
| 2026-04-08 15:41 | 44.21976 | 6.87886 | 34191 ft | 421 kts | 353° |
| 2026-04-08 15:42 | 44.27797 | 6.87014 | 34195 ft | 421 kts | 353° |
| 2026-04-08 15:42 | 44.33615 | 6.86121 | 34196 ft | 421 kts | 353° |
| 2026-04-08 15:43 | 44.39445 | 6.85232 | 34197 ft | 421 kts | 353° |
| 2026-04-08 15:43 | 44.45273 | 6.84350 | 34198 ft | 421 kts | 352° |
| 2026-04-08 15:44 | 44.51101 | 6.83470 | 34193 ft | 421 kts | 352° |
| 2026-04-08 15:44 | 44.56925 | 6.82575 | 34188 ft | 421 kts | 352° |
| 2026-04-08 15:45 | 44.62752 | 6.81677 | 34189 ft | 421 kts | 352° |
| 2026-04-08 15:45 | 44.68580 | 6.80793 | 34187 ft | 421 kts | 352° |
| 2026-04-08 15:46 | 44.74408 | 6.79909 | 34190 ft | 421 kts | 352° |
| 2026-04-08 15:46 | 44.80235 | 6.79013 | 34190 ft | 421 kts | 353° |
| 2026-04-08 15:47 | 44.86051 | 6.78453 | 34187 ft | 422 kts | 356° |
| 2026-04-08 15:47 | 44.91933 | 6.78176 | 34188 ft | 422 kts | 356° |
| 2026-04-08 15:48 | 44.97806 | 6.77882 | 34196 ft | 422 kts | 356° |
| 2026-04-08 15:48 | 45.03669 | 6.77503 | 34204 ft | 422 kts | 355° |
| 2026-04-08 15:49 | 45.09535 | 6.77101 | 34202 ft | 421 kts | 355° |
| 2026-04-08 15:49 | 45.15400 | 6.76698 | 34210 ft | 421 kts | 355° |
| 2026-04-08 15:50 | 45.21260 | 6.76303 | 34222 ft | 421 kts | 355° |
| 2026-04-08 15:50 | 45.27110 | 6.75911 | 34230 ft | 424 kts | 355° |
| 2026-04-08 15:51 | 45.33056 | 6.75462 | 34228 ft | 432 kts | 351° |
| 2026-04-08 15:51 | 45.36021 | 6.74773 | 33720 ft | 433 kts | 348° |
| 2026-04-08 15:51 | 45.38991 | 6.73988 | 32941 ft | 433 kts | 348° |
| 2026-04-08 15:52 | 45.41942 | 6.73182 | 32326 ft | 430 kts | 347° |
| 2026-04-08 15:52 | 45.44870 | 6.72372 | 31750 ft | 427 kts | 347° |
| 2026-04-08 15:52 | 45.47780 | 6.71566 | 31130 ft | 424 kts | 348° |
| 2026-04-08 15:52 | 45.50631 | 6.70779 | 31014 ft | 410 kts | 348° |
| 2026-04-08 15:53 | 45.53393 | 6.70022 | 30830 ft | 399 kts | 348° |
| 2026-04-08 15:53 | 45.56096 | 6.69304 | 30483 ft | 392 kts | 348° |
| 2026-04-08 15:53 | 45.58770 | 6.68616 | 30016 ft | 388 kts | 348° |
| 2026-04-08 15:53 | 45.61418 | 6.67942 | 29540 ft | 384 kts | 348° |
| 2026-04-08 15:54 | 45.64031 | 6.67274 | 29047 ft | 380 kts | 348° |
| 2026-04-08 15:54 | 45.66617 | 6.66609 | 28524 ft | 376 kts | 348° |